Time;durP1;ratioP1;P1;durP2;ratioP2;P2;SDS_P1;SDS_P2;PMS_P1;PMS_P2;Temp;Humidity;BMP_temperature;BMP_pressure;BME280_temperature;BME280_humidity;BME280_pressure;Samples;Min_cycle;Max_cycle;Signal;HPM_P1;HPM_P2
2023/01/03 00:00:10;;;;;;;9.10;4.70;;;;;;;5.49;100.00;101762.50;686819;28;1422;-63
2023/01/03 00:00:31;;;;;;;8.80;4.97;;;;;;;5.49;100.00;101763.38;686487;28;3842;-63
2023/01/03 00:00:52;;;;;;;8.98;5.40;;;;;;;5.49;100.00;101767.69;686131;28;4463;-63
2023/01/03 00:01:13;;;;;;;8.83;5.03;;;;;;;5.49;100.00;101765.09;687311;28;1473;-67
2023/01/03 00:01:33;;;;;;;7.22;4.60;;;;;;;5.53;100.00;101764.38;688220;28;1748;-62
2023/01/03 00:01:54;;;;;;;8.38;4.88;;;;;;;5.54;100.00;101760.91;687602;28;1847;-63
2023/01/03 00:02:14;;;;;;;9.67;4.60;;;;;;;5.53;100.00;101760.06;687905;28;1726;-63
2023/01/03 00:02:35;;;;;;;8.20;4.83;;;;;;;5.55;100.00;101765.28;687321;28;1758;-64
2023/01/03 00:02:56;;;;;;;7.63;4.90;;;;;;;5.62;100.00;101762.97;684544;28;1419;-63
2023/01/03 00:03:16;;;;;;;7.28;4.65;;;;;;;5.70;100.00;101763.19;685431;28;1101;-63
2023/01/03 00:03:37;;;;;;;8.10;4.53;;;;;;;5.75;100.00;101763.38;684833;28;4348;-63
2023/01/03 00:03:58;;;;;;;7.20;4.47;;;;;;;5.76;100.00;101763.41;685042;28;1200;-63
2023/01/03 00:04:20;;;;;;;7.65;4.28;;;;;;;5.76;100.00;101763.41;684956;28;1610;-63
2023/01/03 00:04:40;;;;;;;8.85;4.43;;;;;;;5.72;100.00;101758.97;687942;28;1464;-63
2023/01/03 00:05:01;;;;;;;8.18;4.47;;;;;;;5.64;100.00;101763.00;687184;28;3974;-63
2023/01/03 00:05:22;;;;;;;7.03;4.28;;;;;;;5.61;100.00;101763.78;684576;28;2414;-63
2023/01/03 00:05:46;;;;;;;8.07;4.13;;;;;;;5.56;100.00;101764.47;687329;28;1215;-62
2023/01/03 00:06:19;;;;;;;8.70;4.25;;;;;;;5.58;100.00;101755.00;688212;28;1444;-64
2023/01/03 00:06:43;;;;;;;8.18;4.47;;;;;;;5.58;100.00;101760.19;688321;28;4325;-63
2023/01/03 00:07:03;;;;;;;8.28;4.82;;;;;;;5.54;100.00;101755.72;688200;28;1290;-63
2023/01/03 00:07:32;;;;;;;7.70;4.70;;;;;;;5.53;100.00;101759.19;687480;28;1473;-63
2023/01/03 00:07:53;;;;;;;7.38;4.45;;;;;;;5.52;100.00;101757.41;688208;28;1992;-63
2023/01/03 00:08:16;;;;;;;7.15;4.60;;;;;;;5.50;100.00;101764.25;687163;28;1695;-63
2023/01/03 00:08:37;;;;;;;7.68;4.47;;;;;;;5.58;100.00;101757.59;686854;28;1716;-63
2023/01/03 00:08:58;;;;;;;7.03;4.28;;;;;;;5.64;100.00;101760.41;686795;28;1672;-63
2023/01/03 00:09:22;;;;;;;7.72;4.40;;;;;;;5.62;100.00;101760.38;687240;28;4127;-64
2023/01/03 00:09:42;;;;;;;8.57;4.55;;;;;;;5.55;100.00;101760.09;686845;28;4310;-63
2023/01/03 00:10:07;;;;;;;8.73;4.33;;;;;;;5.51;100.00;101760.81;688104;28;1349;-62
2023/01/03 00:10:28;;;;;;;7.80;4.50;;;;;;;5.50;100.00;101759.97;688071;28;1455;-64
2023/01/03 00:10:48;;;;;;;8.63;4.60;;;;;;;5.49;100.00;101760.78;686864;28;1486;-63
2023/01/03 00:11:18;;;;;;;9.80;4.82;;;;;;;5.49;100.00;101765.09;687772;28;1346;-63
2023/01/03 00:12:24;;;;;;;7.35;4.32;;;;;;;5.59;100.00;101765.47;686825;28;1346;-63
2023/01/03 00:12:45;;;;;;;7.70;4.10;;;;;;;5.54;100.00;101759.22;686927;28;4511;-63
2023/01/03 00:13:05;;;;;;;6.40;4.33;;;;;;;5.47;100.00;101757.28;686125;28;1422;-63
2023/01/03 00:13:25;;;;;;;8.27;4.70;;;;;;;5.42;100.00;101759.69;686898;28;1643;-63
2023/01/03 00:13:46;;;;;;;8.83;4.77;;;;;;;5.38;100.00;101755.22;684900;28;1467;-65
2023/01/03 00:14:07;;;;;;;7.65;4.63;;;;;;;5.43;100.00;101758.88;685214;28;1383;-63
2023/01/03 00:14:31;;;;;;;7.93;4.50;;;;;;;5.55;100.00;101758.41;684160;28;3728;-63
2023/01/03 00:14:52;;;;;;;8.13;4.40;;;;;;;5.54;100.00;101756.63;686589;28;1433;-63
2023/01/03 00:15:16;;;;;;;9.77;4.30;;;;;;;5.57;100.00;101761.06;686850;28;1612;-64
2023/01/03 00:15:37;;;;;;;7.10;4.28;;;;;;;5.61;100.00;101762.91;688737;28;4474;-63
2023/01/03 00:15:57;;;;;;;7.45;4.30;;;;;;;5.63;100.00;101762.13;689311;28;1295;-62
2023/01/03 00:16:19;;;;;;;7.47;4.30;;;;;;;5.57;100.00;101766.25;689584;28;1407;-63
2023/01/03 00:16:40;;;;;;;8.00;4.38;;;;;;;5.49;100.00;101762.50;688054;28;1338;-63
2023/01/03 00:17:02;;;;;;;6.30;4.07;;;;;;;5.47;100.00;101765.06;685406;28;1440;-65
2023/01/03 00:17:23;;;;;;;7.25;4.40;;;;;;;5.50;100.00;101759.97;683753;28;3962;-64
2023/01/03 00:17:44;;;;;;;7.32;4.25;;;;;;;5.49;100.00;101768.56;684622;28;1319;-63
2023/01/03 00:18:05;;;;;;;8.93;4.43;;;;;;;5.45;100.00;101772.78;684856;28;1303;-63
2023/01/03 00:18:25;;;;;;;7.95;4.15;;;;;;;5.43;100.00;101763.19;685296;28;1533;-62
2023/01/03 00:18:45;;;;;;;8.07;4.20;;;;;;;5.41;100.00;101772.59;685214;28;4457;-63
2023/01/03 00:19:08;;;;;;;7.30;4.20;;;;;;;5.41;100.00;101768.31;683956;28;1560;-63
2023/01/03 00:19:31;;;;;;;7.38;4.30;;;;;;;5.44;100.00;101765.81;684739;28;1580;-63
2023/01/03 00:19:51;;;;;;;7.03;4.63;;;;;;;5.43;100.00;101768.38;684939;28;3922;-63
2023/01/03 00:20:12;;;;;;;8.37;4.57;;;;;;;5.44;100.00;101768.41;684597;28;4059;-63
2023/01/03 00:20:33;;;;;;;8.35;4.30;;;;;;;5.48;100.00;101776.28;684762;28;1405;-64
2023/01/03 00:20:53;;;;;;;6.60;4.03;;;;;;;5.50;100.00;101772.94;686735;28;1647;-63
2023/01/03 00:21:14;;;;;;;6.68;4.25;;;;;;;5.50;100.00;101774.63;684390;28;1426;-63
2023/01/03 00:21:34;;;;;;;7.20;4.33;;;;;;;5.51;100.00;101776.38;685593;28;1838;-63
2023/01/03 00:21:55;;;;;;;7.20;4.50;;;;;;;5.50;100.00;101772.03;684034;28;4335;-64
2023/01/03 00:22:16;;;;;;;6.40;4.28;;;;;;;5.46;100.00;101768.47;684533;28;1617;-63
2023/01/03 00:22:37;;;;;;;6.38;4.38;;;;;;;5.42;100.00;101769.19;685824;28;1389;-63
2023/01/03 00:22:58;;;;;;;6.53;4.40;;;;;;;5.36;100.00;101775.06;686523;28;1524;-63
2023/01/03 00:23:19;;;;;;;8.48;4.50;;;;;;;5.35;100.00;101770.69;684106;28;3716;-63
2023/01/03 00:23:39;;;;;;;8.23;4.60;;;;;;;5.38;100.00;101769.91;684273;28;1433;-64
2023/01/03 00:24:00;;;;;;;8.50;4.63;;;;;;;5.36;100.00;101767.28;684120;28;1287;-63
2023/01/03 00:24:21;;;;;;;8.30;4.55;;;;;;;5.39;100.00;101771.69;684345;28;1275;-63
2023/01/03 00:24:43;;;;;;;9.73;4.60;;;;;;;5.41;100.00;101770.91;684466;28;4508;-63
2023/01/03 00:25:03;;;;;;;8.48;4.45;;;;;;;5.39;100.00;101775.16;684167;28;1472;-63
2023/01/03 00:25:26;;;;;;;8.30;4.50;;;;;;;5.38;100.00;101770.78;684824;28;1351;-64
2023/01/03 00:25:46;;;;;;;7.88;4.20;;;;;;;5.37;100.00;101769.03;684568;28;1638;-63
2023/01/03 00:26:08;;;;;;;10.10;4.57;;;;;;;5.34;100.00;101778.41;684342;28;3704;-63
2023/01/03 00:26:29;;;;;;;8.65;4.72;;;;;;;5.37;100.00;101770.72;686525;28;1399;-63
2023/01/03 00:26:50;;;;;;;7.63;4.60;;;;;;;5.48;100.00;101771.09;685552;28;1371;-63
2023/01/03 00:27:11;;;;;;;6.90;4.50;;;;;;;5.50;100.00;101766.84;684610;28;1413;-63
2023/01/03 00:27:31;;;;;;;7.25;4.22;;;;;;;5.55;100.00;101762.69;680898;29;1438;-64
2023/01/03 00:27:51;;;;;;;7.57;4.30;;;;;;;5.63;100.00;101769.03;682667;28;4306;-63
2023/01/03 00:28:12;;;;;;;8.38;4.35;;;;;;;5.66;100.00;101774.31;682215;28;1587;-64
2023/01/03 00:28:32;;;;;;;7.07;4.50;;;;;;;5.62;100.00;101772.44;680429;29;1813;-64
2023/01/03 00:28:53;;;;;;;7.53;4.45;;;;;;;5.59;100.00;101775.84;680870;29;1438;-64
2023/01/03 00:29:14;;;;;;;7.90;4.47;;;;;;;5.56;100.00;101769.66;681488;28;1388;-62
2023/01/03 00:29:34;;;;;;;9.40;4.30;;;;;;;5.54;100.00;101774.78;682240;28;1688;-63
2023/01/03 00:29:55;;;;;;;7.90;4.20;;;;;;;5.57;100.00;101772.28;684355;28;3851;-64
2023/01/03 00:30:15;;;;;;;7.15;4.20;;;;;;;5.57;100.00;101768.84;688455;28;1638;-63
2023/01/03 00:30:36;;;;;;;8.27;4.40;;;;;;;5.53;100.00;101769.56;688474;28;1389;-62
2023/01/03 00:31:03;;;;;;;7.88;4.32;;;;;;;5.55;100.00;101770.47;687044;28;4706;-63
2023/01/03 00:31:24;;;;;;;7.75;4.40;;;;;;;5.56;100.00;101772.25;683667;28;2106;-62
2023/01/03 00:31:44;;;;;;;6.45;4.00;;;;;;;5.59;100.00;101770.66;686821;28;1627;-63
2023/01/03 00:32:05;;;;;;;6.50;4.17;;;;;;;5.62;100.00;101768.16;687093;28;1243;-63
2023/01/03 00:32:25;;;;;;;7.43;4.22;;;;;;;5.60;100.00;101771.53;687972;28;1357;-63
2023/01/03 00:32:46;;;;;;;8.55;4.50;;;;;;;5.51;100.00;101772.09;685318;28;1632;-63
2023/01/03 00:33:07;;;;;;;9.30;4.40;;;;;;;5.41;100.00;101770.91;683800;28;1521;-63
2023/01/03 00:33:27;;;;;;;8.60;4.40;;;;;;;5.39;100.00;101771.69;686997;28;1492;-63
2023/01/03 00:33:47;;;;;;;7.70;4.43;;;;;;;5.44;100.00;101765.81;686552;28;4370;-64
2023/01/03 00:34:08;;;;;;;7.27;4.20;;;;;;;5.54;100.00;101771.28;687317;28;1794;-63
2023/01/03 00:34:29;;;;;;;7.25;4.25;;;;;;;5.55;100.00;101768.78;687158;28;4098;-63
2023/01/03 00:34:49;;;;;;;6.25;4.22;;;;;;;5.56;100.00;101764.47;687713;28;1406;-62
2023/01/03 00:35:10;;;;;;;7.67;4.30;;;;;;;5.55;100.00;101762.69;687385;28;1647;-64
2023/01/03 00:35:31;;;;;;;6.72;4.07;;;;;;;5.59;100.00;101760.28;684710;28;1417;-63
2023/01/03 00:35:51;;;;;;;6.38;4.45;;;;;;;5.56;100.00;101759.28;687032;28;1648;-63
2023/01/03 00:36:11;;;;;;;7.80;4.23;;;;;;;5.55;100.00;101765.28;687482;28;1482;-63
2023/01/03 00:36:33;;;;;;;7.38;4.18;;;;;;;5.52;100.00;101768.66;687946;28;1604;-64
2023/01/03 00:36:53;;;;;;;7.00;4.13;;;;;;;5.55;100.00;101763.59;687216;28;4329;-63
2023/01/03 00:37:14;;;;;;;7.73;4.10;;;;;;;5.60;100.00;101761.16;688103;28;914;-63
2023/01/03 00:37:35;;;;;;;7.88;4.45;;;;;;;5.61;100.00;101758.59;687714;28;1712;-63
2023/01/03 00:37:55;;;;;;;7.77;4.33;;;;;;;5.56;100.00;101764.47;688014;28;1647;-63
2023/01/03 00:38:16;;;;;;;7.00;4.03;;;;;;;5.48;100.00;101765.91;687822;28;1534;-63
2023/01/03 00:38:37;;;;;;;7.97;4.30;;;;;;;5.47;100.00;101759.84;688066;28;2013;-63
2023/01/03 00:38:57;;;;;;;7.90;4.50;;;;;;;5.52;100.00;101768.66;682911;28;5229;-63
2023/01/03 00:39:18;;;;;;;7.32;4.32;;;;;;;5.52;100.00;101763.47;684076;28;1394;-62
2023/01/03 00:39:39;;;;;;;6.67;4.13;;;;;;;5.50;100.00;101769.44;684062;28;4440;-64
2023/01/03 00:40:00;;;;;;;7.28;4.55;;;;;;;5.46;100.00;101768.47;684120;28;1172;-63
2023/01/03 00:40:20;;;;;;;8.32;4.55;;;;;;;5.52;100.00;101770.38;681435;28;1175;-63
2023/01/03 00:40:40;;;;;;;7.88;4.43;;;;;;;5.52;100.00;101779.03;682881;28;1336;-63
2023/01/03 00:41:10;;;;;;;7.93;4.37;;;;;;;5.41;100.00;101768.31;686319;28;1363;-63
2023/01/03 00:41:32;;;;;;;10.60;4.40;;;;;;;5.34;100.00;101763.72;685747;28;1429;-63
2023/01/03 00:41:52;;;;;;;10.30;4.13;;;;;;;5.33;100.00;101769.75;687588;28;1576;-63
2023/01/03 00:42:13;;;;;;;8.63;4.20;;;;;;;5.39;100.00;101767.38;686540;28;1589;-63
2023/01/03 00:43:27;;;;;;;8.85;4.50;;;;;;;5.43;100.00;101768.38;688590;28;1060;-63
2023/01/03 00:43:28;;;;;;;8.90;4.28;;;;;;;5.42;100.00;101767.47;686444;28;6037;-63
2023/01/03 00:43:49;;;;;;;6.85;4.07;;;;;;;5.46;100.00;101764.16;687745;28;1548;-63
2023/01/03 00:44:10;;;;;;;8.10;4.05;;;;;;;5.51;100.00;101766.00;688783;28;1754;-63
2023/01/03 00:44:30;;;;;;;8.13;4.00;;;;;;;5.56;100.00;101767.06;687169;28;3822;-63
2023/01/03 00:44:51;;;;;;;7.72;4.40;;;;;;;5.54;100.00;101772.19;688323;28;1930;-63
2023/01/03 00:45:11;;;;;;;7.23;4.30;;;;;;;5.53;100.00;101774.75;687509;28;1589;-63
2023/01/03 00:45:31;;;;;;;7.72;4.25;;;;;;;5.56;100.00;101769.66;688225;28;1908;-62
2023/01/03 00:45:52;;;;;;;7.00;3.97;;;;;;;5.59;100.00;101770.66;687889;28;4846;-63
2023/01/03 00:46:14;;;;;;;7.50;4.20;;;;;;;5.56;100.00;101770.53;687783;28;1263;-63
2023/01/03 00:46:35;;;;;;;6.45;4.18;;;;;;;5.52;100.00;101771.25;688012;28;1702;-64
2023/01/03 00:46:55;;;;;;;7.15;4.10;;;;;;;5.47;100.00;101775.41;686693;28;3716;-64
2023/01/03 00:47:16;;;;;;;7.30;4.20;;;;;;;5.43;100.00;101766.63;688351;28;1501;-63
2023/01/03 00:47:36;;;;;;;7.18;4.15;;;;;;;5.38;100.00;101775.09;687648;28;1565;-62
2023/01/03 00:47:57;;;;;;;7.63;4.20;;;;;;;5.41;100.00;101772.59;688200;28;1362;-64
2023/01/03 00:48:17;;;;;;;7.70;4.22;;;;;;;5.38;100.00;101770.78;688485;28;1278;-64
2023/01/03 00:48:38;;;;;;;8.83;4.60;;;;;;;5.32;100.00;101778.38;690196;28;4716;-63
2023/01/03 00:48:58;;;;;;;8.48;4.47;;;;;;;5.26;100.00;101772.94;688249;28;1242;-63
2023/01/03 00:49:19;;;;;;;8.30;4.15;;;;;;;5.28;100.00;101777.38;688786;28;1267;-64
2023/01/03 00:49:39;;;;;;;7.43;4.20;;;;;;;5.38;100.00;101780.28;688447;28;3750;-63
2023/01/03 00:50:00;;;;;;;7.22;4.10;;;;;;;5.38;100.00;101775.97;688609;28;1161;-63
2023/01/03 00:50:21;;;;;;;7.95;4.20;;;;;;;5.37;100.00;101774.22;688491;28;1418;-63
2023/01/03 00:50:41;;;;;;;7.67;4.37;;;;;;;5.36;100.00;101772.47;682555;28;1428;-63
2023/01/03 00:51:09;;;;;;;6.85;4.10;;;;;;;5.39;100.00;101776.88;680547;28;1359;-63
2023/01/03 00:51:35;;;;;;;7.47;3.95;;;;;;;5.34;100.00;101774.09;682934;28;1885;-63
2023/01/03 00:51:56;;;;;;;8.00;4.10;;;;;;;5.29;100.00;101776.53;682597;28;4692;-64
2023/01/03 00:52:16;;;;;;;7.80;4.07;;;;;;;5.28;100.00;101777.38;682623;28;1541;-63
2023/01/03 00:52:36;;;;;;;6.37;4.10;;;;;;;5.33;100.00;101772.34;683931;28;1633;-63
2023/01/03 00:52:57;;;;;;;7.27;3.90;;;;;;;5.35;100.00;101781.06;685105;28;1049;-63
2023/01/03 00:53:17;;;;;;;7.50;4.18;;;;;;;5.38;100.00;101775.97;685781;28;1470;-63
2023/01/03 00:53:39;;;;;;;7.17;4.10;;;;;;;5.42;100.00;101776.97;684895;28;1403;-63
2023/01/03 00:54:01;;;;;;;7.03;4.10;;;;;;;5.38;100.00;101775.09;685854;28;1365;-63
2023/01/03 00:54:22;;;;;;;7.10;4.10;;;;;;;5.33;100.00;101780.13;683347;28;3758;-64
2023/01/03 00:54:43;;;;;;;7.53;3.95;;;;;;;5.29;100.00;101775.66;683246;28;4875;-64
2023/01/03 00:55:03;;;;;;;7.83;4.23;;;;;;;5.27;100.00;101773.03;683981;28;1118;-64
2023/01/03 00:55:26;;;;;;;9.43;4.30;;;;;;;5.30;100.00;101774.81;685214;28;1394;-63
2023/01/03 00:55:47;;;;;;;9.03;4.17;;;;;;;5.25;100.00;101779.00;685048;28;1332;-64
2023/01/03 00:56:11;;;;;;;7.60;4.03;;;;;;;5.23;100.00;101778.94;682696;28;1237;-63
2023/01/03 00:56:34;;;;;;;6.94;4.04;;;;;;;5.27;100.00;101782.50;686548;28;1822;-62
2023/01/03 00:56:55;;;;;;;7.28;3.78;;;;;;;5.26;100.00;101780.72;683511;28;3819;-63
2023/01/03 00:57:15;;;;;;;7.45;4.00;;;;;;;5.28;100.00;101774.78;684258;28;1414;-63
2023/01/03 00:57:36;;;;;;;6.83;3.90;;;;;;;5.38;100.00;101778.56;684748;28;1486;-63
2023/01/03 00:57:56;;;;;;;8.13;4.10;;;;;;;5.41;100.00;101786.47;683815;28;4356;-63
2023/01/03 00:58:16;;;;;;;7.63;4.47;;;;;;;5.35;100.00;101780.19;684531;28;1291;-62
2023/01/03 00:58:37;;;;;;;7.83;4.33;;;;;;;5.29;100.00;101788.63;684857;28;1922;-62
2023/01/03 00:58:58;;;;;;;7.80;4.07;;;;;;;5.29;100.00;101783.44;687295;28;1447;-63
2023/01/03 00:59:20;;;;;;;5.63;3.78;;;;;;;5.38;100.00;101775.09;687602;28;1454;-63
2023/01/03 00:59:40;;;;;;;6.53;3.92;;;;;;;5.38;100.00;101780.28;687356;28;3692;-63
2023/01/03 01:00:01;;;;;;;6.57;4.00;;;;;;;5.32;100.00;101778.38;687123;28;1011;-62
2023/01/03 01:00:21;;;;;;;6.67;3.97;;;;;;;5.33;100.00;101784.41;684088;28;1279;-64
2023/01/03 01:00:41;;;;;;;6.32;4.10;;;;;;;5.33;100.00;101780.13;684947;28;4436;-63
2023/01/03 01:01:14;;;;;;;7.87;4.20;;;;;;;5.35;100.00;101788.84;679927;28;1768;-63
2023/01/03 01:01:39;;;;;;;8.32;4.40;;;;;;;5.32;100.00;101780.06;681324;28;1594;-63
2023/01/03 01:02:00;;;;;;;8.25;4.10;;;;;;;5.32;100.00;101785.25;680924;28;1467;-63
2023/01/03 01:02:20;;;;;;;7.30;4.10;;;;;;;5.32;100.00;101783.56;683850;28;1395;-63
2023/01/03 01:02:41;;;;;;;7.15;4.15;;;;;;;5.29;100.00;101786.03;682969;28;1662;-63
2023/01/03 01:03:01;;;;;;;9.43;4.30;;;;;;;5.27;100.00;101782.50;686179;28;1178;-63
2023/01/03 01:03:22;;;;;;;8.07;4.00;;;;;;;5.26;100.00;101784.22;688354;28;1488;-63
2023/01/03 01:03:45;;;;;;;8.20;4.20;;;;;;;5.21;100.00;101790.06;689001;28;4364;-64
2023/01/03 01:04:11;;;;;;;6.88;4.20;;;;;;;5.21;100.00;101780.56;685992;28;1475;-64
2023/01/03 01:04:32;;;;;;;6.88;3.97;;;;;;;5.31;100.00;101789.56;687058;28;1386;-63
2023/01/03 01:04:52;;;;;;;6.43;4.00;;;;;;;5.36;100.00;101788.00;687806;28;1253;-62
2023/01/03 01:05:13;;;;;;;7.60;4.13;;;;;;;5.34;100.00;101786.19;686312;28;1611;-64
2023/01/03 01:05:33;;;;;;;8.23;4.10;;;;;;;5.35;100.00;101794.03;684551;28;1976;-63
2023/01/03 01:05:53;;;;;;;7.97;4.00;;;;;;;5.36;100.00;101792.28;686146;28;1612;-63
2023/01/03 01:06:17;;;;;;;8.05;4.15;;;;;;;5.39;100.00;101790.72;686951;28;1422;-64
2023/01/03 01:06:43;;;;;;;8.02;4.10;;;;;;;5.51;100.00;101791.94;683070;28;4425;-63
2023/01/03 01:07:03;;;;;;;7.72;4.13;;;;;;;5.52;100.00;101791.13;684692;28;4097;-64
2023/01/03 01:07:24;;;;;;;7.03;4.00;;;;;;;5.53;100.00;101785.13;686837;28;1817;-63
2023/01/03 01:07:44;;;;;;;7.97;4.03;;;;;;;5.44;100.00;101786.56;688554;28;1482;-61
2023/01/03 01:08:04;;;;;;;9.45;3.97;;;;;;;5.45;100.00;101790.94;687212;28;1406;-62
2023/01/03 01:08:25;;;;;;;8.43;4.00;;;;;;;5.46;100.00;101787.50;687750;28;1507;-63
2023/01/03 01:08:47;;;;;;;7.75;3.97;;;;;;;5.51;100.00;101792.84;687476;28;1410;-64
2023/01/03 01:09:11;;;;;;;7.85;4.82;;;;;;;5.57;100.00;101794.78;687789;28;1350;-63
2023/01/03 01:09:34;;;;;;;6.40;4.00;;;;;;;5.56;100.00;101793.88;685320;28;1303;-63
2023/01/03 01:09:54;;;;;;;7.10;3.92;;;;;;;5.54;100.00;101789.44;685547;28;4374;-63
2023/01/03 01:10:18;;;;;;;6.77;3.90;;;;;;;5.49;100.00;101793.63;686276;28;1258;-63
2023/01/03 01:11:00;;;;;;;7.20;3.90;;;;;;;5.53;100.00;101790.31;686202;28;1458;-63
2023/01/03 01:11:21;;;;;;;7.20;3.85;;;;;;;5.53;100.00;101791.19;684334;28;1541;-63
2023/01/03 01:11:42;;;;;;;7.20;3.75;;;;;;;5.58;100.00;101799.09;684188;28;1596;-63
2023/01/03 01:12:04;;;;;;;7.60;4.00;;;;;;;5.55;100.00;101792.13;686850;28;1239;-64
2023/01/03 01:12:24;;;;;;;7.75;4.13;;;;;;;5.61;100.00;101794.91;685398;28;3912;-64
2023/01/03 01:12:46;;;;;;;7.17;4.30;;;;;;;5.65;100.00;101795.00;685230;28;4502;-64
2023/01/03 01:13:06;;;;;;;7.63;3.92;;;;;;;5.62;100.00;101791.50;684876;28;1466;-64
2023/01/03 01:13:31;;;;;;;7.60;3.80;;;;;;;5.64;100.00;101799.31;683609;28;1678;-64
2023/01/03 01:13:53;;;;;;;7.05;3.72;;;;;;;5.61;100.00;101792.31;683691;28;1602;-62
2023/01/03 01:14:20;;;;;;;6.88;3.90;;;;;;;5.58;100.00;101794.81;680476;29;1279;-62
2023/01/03 01:14:40;;;;;;;9.65;4.15;;;;;;;5.56;100.00;101793.00;680715;29;1308;-63
2023/01/03 01:15:00;;;;;;;9.73;4.07;;;;;;;5.57;100.00;101798.25;680118;29;1507;-64
2023/01/03 01:15:21;;;;;;;8.80;4.28;;;;;;;5.56;100.00;101793.88;683294;28;1602;-63
2023/01/03 01:15:41;;;;;;;9.50;4.17;;;;;;;5.59;100.00;101790.50;682770;28;4605;-62
2023/01/03 01:16:06;;;;;;;8.43;4.25;;;;;;;5.57;100.00;101797.38;686506;28;1465;-63
2023/01/03 01:16:31;;;;;;;8.32;4.50;;;;;;;5.54;100.00;101787.75;686614;28;3394;-63
2023/01/03 01:17:00;;;;;;;9.60;4.03;;;;;;;5.54;100.00;101799.81;686972;28;1561;-63
2023/01/03 01:17:20;;;;;;;7.68;4.20;;;;;;;5.55;100.00;101793.81;684207;28;1333;-63
2023/01/03 01:17:40;;;;;;;6.90;3.92;;;;;;;5.52;100.00;101798.91;683613;28;1363;-64
2023/01/03 01:18:01;;;;;;;7.40;4.00;;;;;;;5.50;100.00;101792.78;683940;28;1360;-63
2023/01/03 01:18:21;;;;;;;8.00;4.17;;;;;;;5.48;100.00;101797.03;682878;28;1286;-63
2023/01/03 01:18:44;;;;;;;8.60;4.00;;;;;;;5.43;100.00;101802.09;682762;28;4348;-62
2023/01/03 01:19:04;;;;;;;8.15;4.25;;;;;;;5.37;100.00;101796.66;683726;28;1314;-63
2023/01/03 01:19:44;;;;;;;8.80;4.20;;;;;;;5.34;100.00;101793.97;684843;28;1478;-62
2023/01/03 01:20:06;;;;;;;8.98;4.20;;;;;;;5.30;100.00;101798.16;685180;28;1438;-63
2023/01/03 01:20:27;;;;;;;8.68;4.15;;;;;;;5.24;100.00;101803.13;688145;28;1361;-63
2023/01/03 01:20:47;;;;;;;9.98;4.32;;;;;;;5.23;100.00;101802.28;687512;28;1448;-63
2023/01/03 01:21:11;;;;;;;10.27;4.30;;;;;;;5.24;100.00;101804.00;687010;28;1447;-63
2023/01/03 01:21:32;;;;;;;7.00;4.10;;;;;;;5.24;100.00;101797.94;686651;28;1996;-64
2023/01/03 01:21:53;;;;;;;7.80;4.20;;;;;;;5.21;100.00;101803.91;686726;28;5065;-63
2023/01/03 01:22:13;;;;;;;8.73;4.60;;;;;;;5.22;100.00;101809.97;686581;28;1270;-64
2023/01/03 01:22:34;;;;;;;7.70;4.20;;;;;;;5.21;100.00;101803.03;686777;28;1876;-63
2023/01/03 01:22:54;;;;;;;6.97;4.15;;;;;;;5.19;100.00;101805.59;687196;28;1906;-64
2023/01/03 01:23:15;;;;;;;7.00;4.30;;;;;;;5.23;100.00;101801.38;687421;28;3802;-63
2023/01/03 01:23:37;;;;;;;7.63;4.10;;;;;;;5.31;100.00;101804.25;687334;28;1722;-62
2023/01/03 01:23:58;;;;;;;7.18;4.18;;;;;;;5.33;100.00;101808.66;685962;28;1504;-64
2023/01/03 01:24:19;;;;;;;8.27;4.22;;;;;;;5.32;100.00;101805.97;687389;28;1639;-64
2023/01/03 01:24:40;;;;;;;7.88;3.90;;;;;;;5.24;100.00;101809.19;687215;28;4349;-63
2023/01/03 01:25:01;;;;;;;7.03;4.40;;;;;;;5.19;100.00;101810.75;687217;28;1436;-65
2023/01/03 01:25:21;;;;;;;7.40;4.18;;;;;;;5.15;100.00;101808.00;684492;28;1154;-63
2023/01/03 01:25:42;;;;;;;7.33;4.17;;;;;;;5.11;100.00;101807.88;680952;29;1448;-63
2023/01/03 01:26:04;;;;;;;7.28;3.97;;;;;;;5.08;100.00;101806.88;681526;28;1447;-63
2023/01/03 01:26:25;;;;;;;7.63;4.03;;;;;;;5.07;100.00;101813.78;684023;28;1264;-63
2023/01/03 01:26:46;;;;;;;6.97;3.90;;;;;;;5.08;100.00;101815.56;682484;28;1393;-63
2023/01/03 01:27:07;;;;;;;7.00;4.00;;;;;;;5.13;100.00;101809.66;682075;28;3856;-63
2023/01/03 01:27:27;;;;;;;6.75;4.00;;;;;;;5.13;100.00;101814.84;686059;28;1686;-63
2023/01/03 01:27:47;;;;;;;7.17;4.20;;;;;;;5.09;100.00;101809.53;686745;28;4343;-63
2023/01/03 01:28:08;;;;;;;6.68;4.03;;;;;;;5.06;100.00;101814.59;686340;28;1534;-64
2023/01/03 01:28:28;;;;;;;7.37;4.37;;;;;;;5.01;100.00;101807.50;688798;28;1444;-63
2023/01/03 01:28:50;;;;;;;8.57;4.45;;;;;;;4.96;100.00;101815.09;687589;28;1476;-64
2023/01/03 01:29:12;;;;;;;8.60;4.10;;;;;;;5.06;100.00;101818.91;686560;28;1360;-62
2023/01/03 01:29:33;;;;;;;8.98;4.20;;;;;;;5.17;100.00;101820.19;687573;28;3735;-63
2023/01/03 01:29:54;;;;;;;7.55;3.90;;;;;;;5.19;100.00;101815.94;687897;28;1409;-63
2023/01/03 01:30:14;;;;;;;7.82;3.88;;;;;;;5.17;100.00;101816.72;686443;28;1692;-64
2023/01/03 01:30:36;;;;;;;7.40;4.10;;;;;;;5.14;100.00;101812.31;687805;28;2104;-63
2023/01/03 01:30:59;;;;;;;8.32;4.03;;;;;;;5.08;100.00;101812.97;686231;28;4647;-64
2023/01/03 01:31:21;;;;;;;8.93;4.10;;;;;;;5.06;100.00;101814.59;686693;28;1517;-63
2023/01/03 01:31:42;;;;;;;7.78;4.10;;;;;;;5.07;100.00;101813.78;690036;28;1558;-64
2023/01/03 01:32:03;;;;;;;7.18;4.04;;;;;;;5.07;100.00;101811.19;690175;28;1492;-63
2023/01/03 01:32:25;;;;;;;8.18;4.13;;;;;;;5.02;100.00;101812.72;689637;28;1442;-63
2023/01/03 01:32:45;;;;;;;7.60;4.20;;;;;;;5.03;100.00;101811.03;689736;28;1297;-64
2023/01/03 01:33:05;;;;;;;8.93;4.40;;;;;;;5.09;100.00;101821.63;689403;28;1541;-63
2023/01/03 01:33:26;;;;;;;7.85;4.60;;;;;;;5.07;100.00;101815.50;688606;28;1429;-64
2023/01/03 01:33:47;;;;;;;8.52;4.40;;;;;;;5.02;100.00;101819.63;685610;28;4416;-63
2023/01/03 01:34:08;;;;;;;7.90;4.10;;;;;;;4.98;100.00;101810.84;686866;28;3864;-64
2023/01/03 01:34:29;;;;;;;8.60;4.00;;;;;;;4.96;100.00;101820.28;687653;28;1633;-63
2023/01/03 01:34:50;;;;;;;7.93;3.93;;;;;;;4.99;100.00;101815.22;687336;28;1757;-63
2023/01/03 01:35:10;;;;;;;9.25;4.03;;;;;;;5.00;100.00;101814.41;686994;28;1701;-64
2023/01/03 01:35:31;;;;;;;8.10;3.97;;;;;;;4.97;100.00;101818.56;687553;28;1794;-64
2023/01/03 01:35:51;;;;;;;7.47;3.80;;;;;;;5.00;100.00;101814.41;686586;28;1444;-63
2023/01/03 01:36:16;;;;;;;7.33;3.90;;;;;;;5.00;100.00;101818.69;687365;28;1526;-63
2023/01/03 01:36:40;;;;;;;8.32;4.10;;;;;;;5.00;100.00;101814.41;686129;28;1501;-63
2023/01/03 01:37:03;;;;;;;7.72;4.30;;;;;;;4.97;100.00;101819.47;685661;28;4808;-64
2023/01/03 01:37:23;;;;;;;8.05;4.20;;;;;;;4.96;100.00;101820.28;687694;28;1458;-63
2023/01/03 01:37:44;;;;;;;8.20;4.17;;;;;;;4.96;100.00;101820.28;687394;28;1254;-63
2023/01/03 01:38:04;;;;;;;7.73;4.23;;;;;;;5.02;100.00;101825.69;687140;28;1454;-63
2023/01/03 01:38:24;;;;;;;6.97;3.90;;;;;;;5.12;100.00;101819.13;688131;28;1336;-63
2023/01/03 01:38:46;;;;;;;7.93;4.05;;;;;;;5.14;100.00;101816.59;687511;28;4962;-63
2023/01/03 01:39:10;;;;;;;7.85;4.13;;;;;;;5.11;100.00;101822.56;685464;28;1426;-64
2023/01/03 01:39:31;;;;;;;7.68;4.18;;;;;;;5.07;100.00;101824.16;682858;28;1233;-62
2023/01/03 01:39:52;;;;;;;7.28;4.10;;;;;;;5.01;100.00;101821.34;680332;28;4326;-63
2023/01/03 01:40:12;;;;;;;8.63;4.13;;;;;;;5.00;100.00;101814.41;682747;28;1421;-64
2023/01/03 01:40:32;;;;;;;8.27;4.25;;;;;;;5.07;100.00;101816.38;683784;28;1330;-63
2023/01/03 01:40:54;;;;;;;6.73;4.00;;;;;;;5.07;100.00;101813.78;685938;28;1622;-63
2023/01/03 01:44:36;;;;;;;6.55;4.00;;;;;;;4.98;100.00;101821.22;687817;28;1391;-63
2023/01/03 01:44:53;;;;;;;8.57;4.22;;;;;;;5.08;100.00;101825.03;687135;28;1589;-63
2023/01/03 01:45:14;;;;;;;8.60;4.55;;;;;;;5.05;100.00;101822.31;683564;28;1284;-63
2023/01/03 01:45:34;;;;;;;8.30;4.40;;;;;;;5.05;100.00;101825.81;683084;28;1612;-63
2023/01/03 01:45:55;;;;;;;7.28;4.28;;;;;;;5.07;100.00;101824.16;683381;28;4564;-64
2023/01/03 01:46:22;;;;;;;7.97;4.05;;;;;;;4.96;100.00;101825.47;684153;28;1966;-64
2023/01/03 01:46:43;;;;;;;6.82;3.92;;;;;;;4.88;100.00;101824.31;682295;28;1574;-64
2023/01/03 01:47:10;;;;;;;6.43;4.13;;;;;;;4.85;100.00;101830.25;684312;28;3756;-64